Time;durP1;ratioP1;P1;durP2;ratioP2;P2;SDS_P1;SDS_P2;PMS_P1;PMS_P2;Temp;Humidity;BMP_temperature;BMP_pressure;BME280_temperature;BME280_humidity;BME280_pressure;Samples;Min_cycle;Max_cycle;Signal;HPM_P1;HPM_P2
2022/06/03 00:02:54;;;;;;;545.90;516.72;;;15.80;99.90;;;15.77;79.04;100179.69;5073059;28;20208;-69
2022/06/03 00:05:50;;;;;;;524.97;498.52;;;15.80;99.90;;;15.81;78.61;100200.06;5072208;28;20220;-66
2022/06/03 00:08:53;;;;;;;539.42;512.30;;;15.70;99.90;;;15.83;78.76;100213.38;5046237;28;20494;-68
2022/06/03 00:12:14;;;;;;;523.08;496.10;;;15.70;99.90;;;15.72;78.41;100204.66;5059926;28;20225;-68
2022/06/03 00:15:09;;;;;;;509.73;483.10;;;15.70;99.90;;;15.66;78.55;100209.19;5077468;28;20206;-69
2022/06/03 00:18:02;;;;;;;487.88;465.50;;;15.60;99.90;;;15.70;78.79;100217.16;5044675;28;20240;-67
2022/06/03 00:21:05;;;;;;;503.05;478.15;;;15.60;99.90;;;15.59;78.78;100207.50;5085313;28;20223;-69
2022/06/03 00:23:41;;;;;;;531.05;504.45;;;15.50;99.90;;;15.54;79.47;100216.41;5082153;28;20584;-68
2022/06/03 00:27:06;;;;;;;524.35;497.83;;;15.50;99.90;;;15.49;79.09;100216.50;5062184;28;20209;-66
2022/06/03 00:29:57;;;;;;;482.30;460.08;;;15.40;99.90;;;15.36;79.72;100212.25;5002923;28;20214;-69
2022/06/03 00:32:41;;;;;;;468.35;444.98;;;15.30;99.90;;;15.47;79.64;100228.06;5063004;28;20214;-67
2022/06/03 00:35:28;;;;;;;472.70;449.42;;;15.30;99.90;;;15.49;79.79;100253.81;5058266;28;20220;-70
2022/06/03 00:38:11;;;;;;;488.13;464.02;;;15.30;99.90;;;15.49;79.80;100259.13;5064744;28;20220;-68
2022/06/03 00:40:51;;;;;;;499.50;476.35;;;15.30;99.90;;;15.35;80.15;100259.31;5062288;28;20229;-69
2022/06/03 00:43:52;;;;;;;486.00;463.83;;;15.30;99.90;;;15.32;80.79;100269.13;5061482;28;20227;-67
2022/06/03 00:46:43;;;;;;;457.33;436.77;;;15.30;99.90;;;15.26;80.42;100266.56;5046231;28;20197;-68
2022/06/03 00:49:27;;;;;;;442.27;422.85;;;15.20;99.90;;;15.25;80.67;100267.44;5065100;28;20197;-68
2022/06/03 00:52:47;;;;;;;447.63;428.77;;;15.20;99.90;;;15.33;81.00;100295.75;5071140;28;20236;-67
2022/06/03 00:56:05;;;;;;;465.05;442.15;;;15.10;99.90;;;15.25;81.68;100302.97;5075631;28;20201;-70
2022/06/03 00:59:13;;;;;;;448.90;426.80;;;15.10;99.90;;;15.19;81.71;100303.03;5065484;28;20216;-68
2022/06/03 01:01:52;;;;;;;476.00;452.55;;;15.10;99.90;;;15.20;81.14;100310.13;5077717;28;20685;-68
2022/06/03 01:04:29;;;;;;;512.50;487.40;;;15.20;99.90;;;15.14;81.13;100306.66;5084158;28;20201;-67
2022/06/03 01:07:21;;;;;;;542.03;515.05;;;15.20;99.90;;;15.18;80.73;100311.94;5051119;28;20204;-69
2022/06/03 01:10:20;;;;;;;500.77;476.13;;;15.20;99.90;;;15.11;80.64;100312.91;5062546;28;20229;-70
2022/06/03 01:13:03;;;;;;;463.52;440.83;;;15.20;99.90;;;15.14;80.93;100311.97;5063705;28;20212;-67
2022/06/03 01:16:01;;;;;;;469.10;447.75;;;15.00;99.90;;;15.04;80.46;100306.75;5047251;28;20217;-68
2022/06/03 01:18:55;;;;;;;462.27;439.40;;;15.00;99.90;;;15.03;81.26;100314.78;5056375;28;20732;-67
2022/06/03 01:22:12;;;;;;;461.98;440.17;;;15.00;99.90;;;14.99;80.85;100313.03;5059013;28;20230;-67
2022/06/03 01:25:24;;;;;;;479.00;455.17;;;15.00;99.90;;;15.04;81.51;100329.84;5047881;28;20216;-69
2022/06/03 01:28:23;;;;;;;450.98;427.98;;;14.90;99.90;;;15.00;81.63;100334.31;5040517;28;20224;-69
2022/06/03 01:31:22;;;;;;;423.17;402.27;;;14.80;99.90;;;14.87;81.28;100330.03;5063652;28;20228;-67
2022/06/03 01:34:50;;;;;;;437.33;415.02;;;14.90;99.90;;;14.92;80.34;100322.88;5036202;28;20213;-70
2022/06/03 01:37:39;;;;;;;448.77;426.50;;;14.80;99.90;;;14.92;80.36;100319.31;5033942;28;20205;-70
2022/06/03 01:40:18;;;;;;;507.40;482.45;;;14.70;99.90;;;14.83;80.59;100316.75;5063960;28;20237;-66
2022/06/03 01:43:25;;;;;;;473.00;449.10;;;14.70;99.90;;;14.82;80.39;100320.31;5064928;28;20216;-66
2022/06/03 01:46:28;;;;;;;493.23;468.80;;;14.70;99.90;;;14.68;80.66;100313.34;5059451;28;20216;-70
2022/06/03 01:48:56;;;;;;;499.40;475.38;;;14.60;99.90;;;14.80;80.45;100327.44;5062115;28;20189;-67
2022/06/03 01:52:20;;;;;;;510.48;486.65;;;14.60;99.90;;;14.75;80.15;100324.81;5043055;28;20228;-70
2022/06/03 01:55:22;;;;;;;452.30;430.38;;;14.50;99.90;;;14.83;79.85;100332.75;5077547;28;20653;-69
2022/06/03 01:59:04;;;;;;;478.90;454.55;;;14.60;99.90;;;14.68;80.08;100317.78;5039468;28;20580;-69
2022/06/03 02:02:11;;;;;;;503.10;478.15;;;14.50;99.90;;;14.69;80.31;100327.53;5037584;28;20242;-68
2022/06/03 02:05:22;;;;;;;440.48;418.85;;;14.50;99.90;;;14.54;80.21;100307.28;5037730;28;20222;-67
2022/06/03 02:08:22;;;;;;;463.25;441.08;;;15.10;99.90;;;14.46;80.53;100302.94;5076443;28;20213;-69
2022/06/03 02:11:17;;;;;;;526.35;499.92;;;14.30;99.90;;;14.51;80.75;100312.63;5034889;28;20217;-67
2022/06/03 02:13:48;;;;;;;467.27;446.15;;;14.40;99.90;;;14.38;80.78;100302.97;5056883;28;20221;-67
2022/06/03 02:16:39;;;;;;;514.13;488.65;;;14.20;99.90;;;14.34;80.86;100295.91;5063424;28;20288;-68
2022/06/03 02:19:22;;;;;;;532.58;505.77;;;14.20;99.90;;;14.41;80.83;100322.44;5055792;28;20224;-67
2022/06/03 02:22:11;;;;;;;473.90;451.23;;;14.30;99.90;;;14.29;81.06;100311.88;5083159;28;20271;-70
2022/06/03 02:25:15;;;;;;;496.55;471.33;;;14.20;99.90;;;14.44;81.45;100340.19;5056389;28;20213;-67
2022/06/03 02:28:15;;;;;;;465.88;442.42;;;14.30;99.90;;;14.31;81.45;100335.81;5086590;28;20205;-67
2022/06/03 02:31:11;;;;;;;472.30;449.48;;;14.20;99.90;;;14.31;80.70;100334.03;5078181;28;20226;-67
2022/06/03 02:34:06;;;;;;;509.10;483.30;;;14.10;99.90;;;14.28;81.24;100350.00;5073950;28;20215;-70
2022/06/03 02:36:59;;;;;;;521.28;495.05;;;14.20;99.90;;;14.30;81.50;100363.28;5059508;28;20205;-69
2022/06/03 02:39:55;;;;;;;520.92;494.10;;;14.20;99.90;;;14.24;81.35;100360.66;5058336;28;20229;-67
2022/06/03 02:43:01;;;;;;;507.90;482.67;;;14.20;99.90;;;14.17;81.20;100335.00;5058913;28;20202;-67
2022/06/03 02:46:10;;;;;;;475.90;452.10;;;14.10;99.90;;;14.11;81.97;100335.94;5060202;28;20774;-67
2022/06/03 02:49:08;;;;;;;485.38;460.08;;;14.00;99.90;;;14.13;81.75;100355.44;5041149;28;20209;-67
2022/06/03 02:52:20;;;;;;;466.67;443.35;;;14.00;99.90;;;14.10;81.54;100358.09;5063682;28;20221;-67
2022/06/03 02:55:25;;;;;;;454.02;432.70;;;14.00;99.90;;;14.10;81.43;100352.78;5075178;28;20202;-66
2022/06/03 02:58:31;;;;;;;452.77;430.98;;;13.90;99.90;;;13.98;81.87;100347.53;5046665;28;20205;-69
2022/06/03 03:01:15;;;;;;;462.42;438.20;;;13.90;99.90;;;14.01;82.17;100358.16;5062019;28;20252;-68
2022/06/03 03:04:01;;;;;;;445.38;423.02;;;13.80;99.90;;;13.91;82.50;100365.31;5038973;28;20217;-70
2022/06/03 03:06:40;;;;;;;454.55;432.40;;;13.80;99.90;;;13.98;82.85;100377.69;5065644;28;20224;-69
2022/06/03 03:09:32;;;;;;;440.83;419.95;;;13.80;99.90;;;13.83;83.01;100371.56;5080828;28;20201;-67
2022/06/03 03:12:18;;;;;;;493.35;469.02;;;13.80;99.90;;;13.83;82.92;100374.22;5063521;28;20228;-69
2022/06/03 03:15:24;;;;;;;477.80;453.77;;;13.70;99.90;;;13.94;82.78;100388.34;5058923;28;20204;-69
2022/06/03 03:18:43;;;;;;;483.73;460.77;;;13.70;99.90;;;13.86;83.10;100388.38;5060297;28;20208;-67
2022/06/03 03:21:25;;;;;;;455.85;434.05;;;13.70;99.90;;;13.77;83.25;100385.78;5077628;28;20244;-68
2022/06/03 03:24:26;;;;;;;455.42;433.48;;;13.70;99.90;;;13.80;83.39;100392.84;5049127;28;20216;-69
2022/06/03 03:27:21;;;;;;;443.90;422.85;;;13.60;99.90;;;13.68;83.28;100385.81;5064400;28;20240;-68
2022/06/03 03:30:18;;;;;;;495.13;470.17;;;13.60;99.90;;;13.89;82.75;100422.03;5081481;28;20600;-70
2022/06/03 03:33:01;;;;;;;470.75;447.98;;;13.60;99.90;;;13.80;82.84;100414.09;5081392;28;20205;-67
2022/06/03 03:35:56;;;;;;;484.83;460.83;;;13.60;99.90;;;13.73;83.81;100411.47;5048527;28;20561;-69
2022/06/03 03:39:06;;;;;;;446.27;424.70;;;13.60;99.90;;;13.74;83.52;100418.56;5048267;28;20256;-67
2022/06/03 03:42:23;;;;;;;442.30;420.30;;;13.60;99.90;;;13.71;83.48;100415.03;5069841;28;20719;-68
2022/06/03 03:45:14;;;;;;;462.10;438.73;;;13.60;99.90;;;13.82;83.69;100436.25;5081966;28;20236;-67
2022/06/03 03:47:42;;;;;;;499.38;474.63;;;13.50;99.90;;;13.74;83.69;100429.19;5099293;28;20230;-69
2022/06/03 03:50:25;;;;;;;418.27;397.27;;;13.60;99.90;;;13.69;83.65;100422.13;5047048;28;20229;-67
2022/06/03 03:53:44;;;;;;;441.95;418.70;;;13.60;99.90;;;13.70;84.24;100438.06;5081311;28;20202;-68
2022/06/03 03:56:48;;;;;;;403.95;384.45;;;13.60;99.90;;;13.73;83.82;100442.47;5077383;28;20208;-67
2022/06/03 04:00:06;;;;;;;413.10;391.52;;;13.60;99.90;;;13.72;84.36;100444.25;5077858;28;20208;-70
2022/06/03 04:02:43;;;;;;;431.58;407.85;;;13.50;99.90;;;13.73;84.54;100446.03;5060433;28;20643;-68
2022/06/03 04:06:11;;;;;;;445.40;422.85;;;13.50;99.90;;;13.80;84.40;100473.47;5046623;28;20586;-67
2022/06/03 04:09:13;;;;;;;437.55;415.02;;;13.60;99.90;;;13.77;84.49;100474.38;5072621;28;20209;-68
2022/06/03 04:12:20;;;;;;;498.55;471.27;;;13.60;99.90;;;13.84;85.21;100495.59;5061745;28;20221;-69
2022/06/03 04:15:06;;;;;;;440.23;417.70;;;13.70;99.90;;;13.87;84.91;100495.59;5095485;28;20217;-67
2022/06/03 04:17:43;;;;;;;428.20;405.48;;;13.70;99.90;;;13.95;84.55;100513.28;5079273;28;20206;-67
2022/06/03 04:20:36;;;;;;;416.92;396.20;;;13.70;99.90;;;13.92;83.96;100505.31;5098398;28;20598;-68
2022/06/03 04:23:25;;;;;;;434.63;413.35;;;13.80;99.90;;;13.96;84.23;100495.56;5066199;28;20206;-67
2022/06/03 04:26:14;;;;;;;460.40;438.02;;;13.40;99.90;;;14.02;83.94;100507.06;5063424;28;20210;-69
2022/06/03 04:29:35;;;;;;;479.52;455.10;;;13.70;99.90;;;14.08;83.71;100512.34;5030281;28;20208;-69
2022/06/03 04:32:12;;;;;;;455.98;432.98;;;13.80;99.90;;;14.11;83.88;100506.13;5051643;28;20201;-67
2022/06/03 04:35:07;;;;;;;461.35;437.95;;;13.80;99.90;;;14.14;83.94;100499.91;5084086;28;20209;-66
2022/06/03 04:37:53;;;;;;;484.83;459.77;;;13.90;99.90;;;14.17;84.41;100519.41;5064676;28;20205;-70
2022/06/03 04:41:08;;;;;;;479.35;455.77;;;13.90;99.90;;;14.21;84.52;100534.47;5080511;28;20362;-66
2022/06/03 04:43:56;;;;;;;481.25;457.38;;;13.90;99.90;;;14.23;84.73;100531.78;5077421;28;20202;-69
2022/06/03 04:46:55;;;;;;;495.10;470.75;;;14.00;99.90;;;14.31;84.89;100544.22;5058280;28;20213;-69
2022/06/03 04:49:48;;;;;;;498.25;473.48;;;14.00;99.90;;;14.33;85.11;100547.75;5066413;28;20216;-67
2022/06/03 04:53:11;;;;;;;475.38;451.42;;;14.10;99.90;;;14.45;84.54;100561.91;5063531;28;20205;-67
2022/06/03 04:56:19;;;;;;;505.67;479.92;;;14.10;99.90;;;14.51;84.68;100572.53;5042465;28;20560;-67
2022/06/03 04:59:08;;;;;;;500.40;474.67;;;14.20;99.90;;;14.56;84.02;100566.28;5077240;28;20205;-67
2022/06/03 05:02:02;;;;;;;542.03;514.92;;;14.30;99.90;;;14.58;84.79;100560.97;5058287;28;20241;-66
2022/06/03 05:05:01;;;;;;;514.92;488.88;;;14.30;99.90;;;14.64;84.96;100561.81;5057636;28;20209;-69
2022/06/03 05:08:08;;;;;;;464.88;443.70;;;14.30;99.90;;;14.71;84.86;100575.97;5062720;28;20209;-68
2022/06/03 05:10:42;;;;;;;448.38;426.50;;;14.40;99.90;;;14.75;84.66;100587.50;5060708;28;20224;-69
2022/06/03 05:13:44;;;;;;;482.17;456.48;;;14.40;99.90;;;14.87;84.52;100584.75;5068812;28;20224;-69
2022/06/03 05:16:42;;;;;;;458.45;436.42;;;14.50;99.90;;;14.91;84.67;100590.03;5050039;28;20207;-69
2022/06/03 05:19:13;;;;;;;463.98;441.13;;;14.60;99.90;;;15.00;83.67;100586.44;5065565;28;20205;-69
2022/06/03 05:22:23;;;;;;;469.80;447.05;;;14.60;99.90;;;15.08;84.61;100594.38;5077474;28;20248;-68
2022/06/03 05:25:12;;;;;;;494.55;470.45;;;14.70;99.90;;;15.17;83.88;100599.63;5079563;28;20221;-69
2022/06/03 05:28:04;;;;;;;522.17;496.88;;;14.80;99.90;;;15.26;83.50;100603.13;5044569;28;20210;-67
2022/06/03 05:31:02;;;;;;;501.50;475.60;;;14.90;99.90;;;15.34;82.49;100601.28;5065941;28;20600;-69
2022/06/03 05:34:10;;;;;;;486.30;462.50;;;15.00;99.90;;;15.36;81.72;100580.84;5065395;28;20212;-67
2022/06/03 05:37:06;;;;;;;491.90;467.38;;;15.10;99.90;;;15.43;82.23;100599.44;5084809;28;20216;-67
2022/06/03 05:40:12;;;;;;;492.10;467.95;;;15.10;99.90;;;15.56;81.91;100603.78;5071000;28;20216;-68
2022/06/03 05:43:11;;;;;;;490.48;466.67;;;15.20;99.90;;;15.72;83.29;100626.81;5075870;28;20214;-70
2022/06/03 05:46:11;;;;;;;529.00;502.25;;;15.30;99.90;;;15.79;81.27;100614.28;5078928;28;20209;-67
2022/06/03 05:49:05;;;;;;;535.03;508.13;;;15.40;99.90;;;15.91;81.37;100616.84;5083224;28;20213;-67
2022/06/03 05:51:58;;;;;;;490.40;467.88;;;15.50;99.90;;;16.03;80.78;100618.50;5045936;28;20221;-67
2022/06/03 05:54:53;;;;;;;533.40;507.05;;;15.60;99.90;;;16.10;80.01;100599.75;5078892;28;20206;-67
2022/06/03 05:57:49;;;;;;;559.00;530.92;;;15.70;99.90;;;16.29;79.30;100608.44;5075668;28;20213;-68
2022/06/03 06:00:45;;;;;;;526.83;502.35;;;15.80;99.90;;;16.37;79.36;100598.56;5056846;28;20312;-67
2022/06/03 06:03:41;;;;;;;504.77;479.55;;;15.90;99.90;;;16.43;78.53;100584.25;5082040;28;20201;-67
2022/06/03 06:06:59;;;;;;;526.30;499.73;;;16.00;99.90;;;16.48;78.37;100577.06;5032750;28;20694;-66
2022/06/03 06:09:59;;;;;;;501.55;477.60;;;16.10;99.90;;;16.67;77.07;100575.94;5076053;28;20217;-69
2022/06/03 06:12:44;;;;;;;489.45;468.00;;;16.20;99.90;;;16.69;77.40;100575.94;5032546;28;20210;-69
2022/06/03 06:15:30;;;;;;;497.40;473.52;;;16.30;99.90;;;16.81;76.39;100563.28;5057656;28;20653;-68
2022/06/03 06:18:33;;;;;;;487.20;464.38;;;16.40;99.90;;;16.95;76.24;100555.97;5077888;28;20213;-69
2022/06/03 06:21:22;;;;;;;538.90;512.88;;;16.50;99.90;;;17.07;76.05;100552.25;5047650;28;20240;-69
2022/06/03 06:24:09;;;;;;;540.08;514.00;;;16.70;99.90;;;17.14;75.58;100543.22;5080134;28;20201;-69
2022/06/03 06:26:54;;;;;;;516.03;490.00;;;16.70;99.90;;;17.38;75.82;100541.94;5046551;28;20198;-67
2022/06/03 06:30:09;;;;;;;545.33;518.42;;;16.80;99.90;;;17.27;74.69;100494.00;5045045;28;20197;-66
2022/06/03 06:32:52;;;;;;;535.90;509.38;;;17.00;99.90;;;17.43;74.60;100491.94;5068895;28;20205;-70
2022/06/03 06:36:10;;;;;;;532.30;503.98;;;17.00;99.90;;;17.92;74.22;100528.50;5080809;28;20200;-67
2022/06/03 06:39:08;;;;;;;516.15;490.52;;;17.30;99.90;;;18.05;74.55;100513.94;5080921;28;20206;-69
2022/06/03 06:41:54;;;;;;;490.25;467.77;;;17.50;99.90;;;17.97;73.17;100465.06;5074224;28;20226;-67
2022/06/03 06:45:17;;;;;;;506.95;481.33;;;17.60;99.90;;;18.08;74.79;100487.13;5061032;28;20693;-69
2022/06/03 06:47:55;;;;;;;493.98;468.45;;;17.70;99.90;;;18.16;75.17;100486.97;5046762;28;20206;-67
2022/06/03 06:50:31;;;;;;;493.67;468.05;;;17.90;99.90;;;18.25;74.09;100475.22;5044200;28;20231;-67
2022/06/03 06:53:12;;;;;;;533.75;505.83;;;18.00;99.90;;;18.51;73.90;100481.75;5058045;28;20205;-66
2022/06/03 06:56:11;;;;;;;525.35;500.65;;;18.20;99.90;;;18.74;74.10;100493.75;5043904;28;20216;-67
2022/06/03 06:59:31;;;;;;;500.65;475.52;;;18.40;99.90;;;18.91;73.83;100488.88;5063587;28;20209;-67
2022/06/03 07:02:17;;;;;;;559.20;530.55;;;18.60;99.90;;;19.08;74.70;100489.34;5001105;28;20227;-68
2022/06/03 07:04:58;;;;;;;566.45;537.47;;;18.80;99.90;;;19.15;72.56;100442.69;5061136;28;20213;-68
2022/06/03 07:07:35;;;;;;;496.40;471.45;;;18.90;99.90;;;19.23;72.66;100428.22;5045079;28;20212;-68
2022/06/03 07:10:14;;;;;;;494.80;469.30;;;19.10;99.90;;;19.02;71.59;100392.13;5047629;28;20213;-69
2022/06/03 07:13:08;;;;;;;599.42;568.35;;;19.00;99.90;;;19.34;72.25;100410.03;5059255;28;20217;-67
2022/06/03 07:20:01;;;;;;;507.63;481.33;;;19.20;99.90;;;19.85;70.50;100378.22;5043640;28;20211;-67
2022/06/03 07:23:06;;;;;;;501.90;476.05;;;19.50;99.90;;;20.03;69.84;100353.50;5061852;28;20222;-67
2022/06/03 07:25:59;;;;;;;503.25;476.92;;;19.80;99.90;;;19.77;69.30;100302.44;5043139;28;20202;-69
2022/06/03 07:28:43;;;;;;;508.88;482.65;;;19.90;99.90;;;20.60;68.48;100347.22;5078922;28;20582;-65
2022/06/03 07:31:28;;;;;;;536.10;506.60;;;20.20;99.90;;;20.48;70.08;100336.00;5055755;28;20241;-65
2022/06/03 07:34:02;;;;;;;500.30;474.02;;;20.40;99.90;;;20.32;68.70;100273.81;5080529;28;20206;-65
2022/06/03 07:36:43;;;;;;;519.22;491.20;;;20.50;99.90;;;20.15;67.70;100218.00;5068095;28;20205;-65
2022/06/03 07:39:23;;;;;;;517.83;489.95;;;20.20;99.90;;;20.56;68.58;100251.53;5032127;28;20206;-65
2022/06/03 07:42:07;;;;;;;586.90;556.08;;;20.30;99.90;;;21.12;69.56;100305.09;5076701;28;20236;-65
2022/06/03 07:45:26;;;;;;;539.00;509.33;;;20.70;99.90;;;20.63;67.82;100209.22;5065344;28;20200;-65
2022/06/03 07:48:16;;;;;;;514.70;486.95;;;20.90;99.90;;;21.11;68.15;100244.19;5046670;28;20205;-65
2022/06/03 07:50:54;;;;;;;507.70;479.85;;;20.90;99.90;;;20.68;66.98;100165.13;5052183;28;20240;-65
2022/06/03 07:54:04;;;;;;;506.52;478.40;;;21.00;99.90;;;21.12;66.65;100183.22;5086750;28;20213;-65
2022/06/03 07:56:37;;;;;;;503.40;475.85;;;21.00;99.90;;;21.09;65.79;100143.88;5066340;28;20212;-65
2022/06/03 07:59:19;;;;;;;553.90;522.40;;;21.10;99.90;;;21.22;66.94;100173.88;5056145;28;20209;-65
2022/06/03 08:02:16;;;;;;;604.38;567.35;;;21.20;99.90;;;21.23;66.61;100140.69;5065126;28;20228;-65
2022/06/03 08:04:48;;;;;;;626.08;591.42;;;21.20;99.90;;;21.73;66.20;100171.81;5043843;28;20216;-65
2022/06/03 08:13:20;;;;;;;603.30;568.20;;;22.30;99.90;;;22.29;64.34;100114.75;5075954;28;20208;-65
2022/06/03 08:16:03;;;;;;;657.28;619.72;;;22.50;99.90;;;21.89;66.73;100104.75;5081260;28;20251;-65
2022/06/03 08:18:40;;;;;;;594.03;561.28;;;22.50;99.90;;;23.10;66.22;100194.66;5034733;28;20213;-65
2022/06/03 08:21:32;;;;;;;592.78;558.80;;;23.10;99.90;;;21.83;65.59;100001.88;5066699;28;20220;-65
2022/06/03 08:24:02;;;;;;;582.53;548.78;;;22.90;99.90;;;22.30;66.65;100083.31;5069526;28;20204;-65
2022/06/03 08:26:31;;;;;;;636.15;597.67;;;22.70;99.90;;;22.97;66.44;100147.63;5067454;28;20197;-65
2022/06/03 08:29:36;;;;;;;592.67;557.30;;;22.90;99.90;;;22.74;66.20;100099.25;5069179;28;20577;-65
2022/06/03 08:32:16;;;;;;;601.63;565.75;;;23.50;99.90;;;23.26;65.52;100122.84;5083731;28;20208;-65
2022/06/03 08:34:50;;;;;;;559.53;525.55;;;23.80;99.90;;;;;;5062356;28;20213;-65
2022/06/03 08:37:32;;;;;;;537.85;506.38;;;24.00;99.90;;;23.58;65.50;100115.94;5086079;28;20211;-65
2022/06/03 08:40:16;;;;;;;538.83;506.38;;;24.20;99.90;;;23.79;64.57;100086.13;5058126;28;20232;-65
2022/06/03 08:42:55;;;;;;;529.95;497.48;;;24.50;99.90;;;23.06;64.26;99971.91;5033651;28;20227;-65
2022/06/03 08:45:58;;;;;;;540.83;505.58;;;24.30;99.90;;;23.20;64.21;99971.22;5064063;28;20676;-65
2022/06/03 08:48:33;;;;;;;452.77;426.02;;;24.40;99.90;;;23.20;63.75;99969.38;5014799;28;20211;-65
2022/06/03 08:51:08;;;;;;;474.15;442.15;;;24.10;99.90;;;22.84;64.57;99918.16;5058512;28;20302;-66
2022/06/03 08:53:57;;;;;;;508.55;477.45;;;23.60;99.90;;;23.83;65.06;100034.59;5058333;28;20223;-65
2022/06/03 08:56:36;;;;;;;402.75;379.90;;;24.10;99.90;;;23.28;65.06;99971.69;5064115;28;20201;-65
2022/06/03 08:59:17;;;;;;;447.13;419.70;;;24.30;99.90;;;23.79;65.91;100029.41;5030517;28;20212;-65
2022/06/03 09:01:55;;;;;;;375.73;353.80;;;24.30;99.90;;;24.07;64.97;100031.56;5079388;28;20250;-66
2022/06/03 09:04:32;;;;;;;327.50;307.17;;;24.70;99.90;;;23.99;63.99;99990.56;5046869;28;20533;-66
2022/06/03 09:07:39;;;;;;;444.92;418.08;;;25.30;99.90;;;24.56;65.78;100062.25;5055867;28;20224;-65
2022/06/03 09:10:28;;;;;;;459.13;430.45;;;25.00;99.90;;;23.83;63.94;99907.66;5064932;28;20700;-65
2022/06/03 09:13:04;;;;;;;448.52;420.25;;;25.00;99.90;;;24.24;63.40;99955.88;5055773;28;20197;-64
2022/06/03 09:15:38;;;;;;;505.65;474.30;;;25.00;99.90;;;24.73;65.55;100026.22;5031718;28;20201;-65
2022/06/03 09:18:32;;;;;;;487.65;457.67;;;25.20;99.90;;;24.54;65.49;99989.34;5054071;28;20205;-65
2022/06/03 09:21:14;;;;;;;441.77;413.55;;;25.10;99.90;;;24.78;63.66;99941.16;5044939;28;20220;-66
2022/06/03 09:23:49;;;;;;;419.13;392.67;;;26.00;99.90;;;25.32;63.14;99975.94;5032849;28;20227;-66
2022/06/03 09:26:44;;;;;;;385.42;358.88;;;26.30;99.90;;;25.18;62.70;99930.75;5079080;28;20204;-64
2022/06/03 09:29:15;;;;;;;362.95;338.73;;;26.30;99.90;;;24.71;63.00;99855.06;5085720;28;20208;-64
2022/06/03 09:31:58;;;;;;;409.63;383.48;;;26.20;99.90;;;24.45;63.42;99832.22;5044364;28;20231;-65
2022/06/03 09:34:47;;;;;;;441.67;414.20;;;25.40;99.90;;;25.51;63.43;99958.50;5073272;28;20208;-65
2022/06/03 09:37:25;;;;;;;451.30;421.30;;;25.80;99.90;;;25.48;62.63;99919.91;5062666;28;20205;-65
2022/06/03 09:39:55;;;;;;;438.25;407.52;;;26.50;99.90;;;25.17;63.83;99872.19;5036785;28;20205;-65
2022/06/03 09:42:24;;;;;;;428.85;400.30;;;26.20;99.90;;;25.29;62.76;99859.75;5042679;28;20696;-65
2022/06/03 09:44:53;;;;;;;447.88;416.00;;;26.30;99.90;;;24.93;64.03;99823.09;5036305;28;20208;-65
2022/06/03 09:47:23;;;;;;;430.55;401.48;;;26.00;99.90;;;26.18;63.61;99948.13;5047681;28;20672;-65
2022/06/03 09:49:52;;;;;;;391.60;364.42;;;26.60;99.90;;;25.61;62.99;99855.06;5062736;28;20192;-65
2022/06/03 09:52:26;;;;;;;388.00;361.80;;;26.80;99.90;;;25.86;65.53;99919.44;5044955;28;20209;-65
2022/06/03 09:55:00;;;;;;;414.90;386.80;;;26.80;99.90;;;25.59;65.98;99884.94;5062651;28;20208;-65
2022/06/03 09:57:36;;;;;;;392.60;366.40;;;26.60;99.90;;;26.14;65.95;99947.44;5079129;28;20201;-65
2022/06/03 10:00:22;;;;;;;352.50;328.30;;;26.90;99.90;;;26.02;66.58;99934.69;5060186;28;20224;-65
2022/06/03 10:02:53;;;;;;;395.00;366.85;;;27.70;99.90;;;26.06;62.83;99864.91;5055932;28;20223;-65
2022/06/03 10:05:21;;;;;;;498.48;464.98;;;28.20;99.90;;;27.60;64.57;100002.16;5061714;28;20212;-65
2022/06/03 10:08:03;;;;;;;557.05;520.08;;;28.80;99.90;;;27.84;63.96;99988.75;5030160;28;20227;-65
2022/06/03 10:13:19;;;;;;;674.67;630.13;;;30.00;99.90;;;26.98;65.27;99874.22;5050095;28;20691;-65
2022/06/03 10:15:56;;;;;;;776.50;725.67;;;30.10;99.90;;;28.15;63.14;99957.56;5042850;28;20577;-65
2022/06/03 10:18:30;;;;;;;750.80;699.85;;;30.20;99.90;;;26.77;62.84;99770.69;5040787;28;20205;-65
2022/06/03 10:21:10;;;;;;;824.85;770.40;;;29.70;99.90;;;27.82;65.38;99916.47;5058485;28;20224;-65
2022/06/03 10:23:43;;;;;;;953.33;891.22;;;29.90;99.90;;;27.21;63.34;99814.78;5062926;28;20223;-66
2022/06/03 10:26:51;;;;;;;1027.57;961.45;;;30.00;99.90;;;28.18;65.48;99951.03;5076068;28;20201;-65
2022/06/03 10:29:22;;;;;;;956.20;893.72;;;30.20;99.90;;;28.21;62.70;99893.72;5042081;28;20228;-65
2022/06/03 10:32:01;;;;;;;890.90;830.95;;;30.70;99.90;;;27.48;62.61;99810.16;5061410;28;20229;-65
2022/06/03 10:34:39;;;;;;;850.50;795.00;;;30.70;99.90;;;27.53;60.27;99731.94;5044387;28;20533;-65
2022/06/03 10:37:15;;;;;;;761.25;710.95;;;30.20;99.50;;;28.43;61.45;99852.25;5043732;28;20211;-65
2022/06/03 10:39:44;;;;;;;685.33;638.03;;;29.10;99.90;;;27.39;62.11;99711.19;5055157;28;20216;-65
2022/06/03 10:42:19;;;;;;;614.78;573.72;;;29.10;99.90;;;27.70;61.53;99742.47;5062607;28;20205;-66
2022/06/03 10:44:53;;;;;;;585.65;546.30;;;29.20;99.90;;;28.03;64.51;99823.38;5048201;28;20208;-65
2022/06/03 10:47:33;;;;;;;628.05;585.80;;;29.10;99.90;;;28.24;60.64;99744.84;5065287;28;20207;-65
2022/06/03 10:50:13;;;;;;;632.50;590.00;;;29.70;99.90;;;28.60;60.37;99773.84;5054087;28;20229;-65
2022/06/03 11:01:42;;;;;;;585.60;545.85;;;30.30;99.90;;;28.32;64.10;99725.25;5033593;28;20228;-66
2022/06/03 11:04:33;;;;;;;593.47;552.95;;;29.80;99.90;;;28.89;63.64;99788.00;5042254;28;20224;-66
2022/06/03 11:07:27;;;;;;;646.65;602.92;;;29.90;99.90;;;29.49;62.32;99811.44;5060859;28;20204;-65
2022/06/03 11:10:03;;;;;;;731.20;681.30;;;31.00;99.70;;;28.92;61.03;99646.22;5039430;28;20594;-66
2022/06/03 11:12:59;;;;;;;704.03;656.50;;;31.10;99.90;;;29.29;61.52;99690.44;5042105;28;20212;-66
2022/06/03 11:15:40;;;;;;;766.72;714.63;;;31.50;99.90;;;30.12;60.98;99752.78;5033005;28;20212;-66
2022/06/03 11:18:32;;;;;;;922.20;861.30;;;32.90;99.90;;;29.98;60.00;99670.38;5043502;28;20227;-65
2022/06/03 11:21:25;;;;;;;612.03;568.58;;;33.00;99.90;;;29.45;60.33;99629.31;5042087;28;20221;-65
2022/06/03 11:23:57;;;;;;;554.75;515.47;;;31.90;97.40;;;28.74;62.00;99537.94;5034296;28;20224;-66
2022/06/03 11:26:33;;;;;;;531.13;494.30;;;32.00;98.00;;;29.23;61.69;99609.25;5072527;28;20204;-66
2022/06/03 11:29:08;;;;;;;498.83;462.95;;;32.00;99.60;;;28.76;62.16;99545.00;5030799;28;20204;-65
2022/06/03 11:31:47;;;;;;;484.27;450.45;;;31.10;97.50;;;28.44;60.76;99489.56;5070201;28;20220;-65
2022/06/03 11:34:38;;;;;;;476.80;443.08;;;30.90;97.70;;;28.89;59.82;99498.63;5061383;28;20211;-66
2022/06/03 11:37:12;;;;;;;505.92;469.83;;;31.00;96.90;;;29.36;61.13;99564.66;5069022;28;20199;-65
2022/06/03 11:39:49;;;;;;;555.60;516.83;;;31.10;98.60;;;29.51;60.65;99560.69;5057002;28;20236;-66
2022/06/03 11:42:33;;;;;;;570.00;529.20;;;31.50;98.00;;;29.77;61.47;99589.34;5047050;28;20204;-66
2022/06/03 11:45:29;;;;;;;593.92;551.20;;;32.20;98.20;;;30.44;60.61;99627.31;5061205;28;20220;-66
2022/06/03 11:48:29;;;;;;;613.70;569.85;;;32.70;98.60;;;30.31;59.38;99566.63;5063143;28;20205;-65